createdAt,value
2022-12-03T00:03:03.875Z,2.36
2022-12-03T00:08:07.167Z,1.50
2022-12-03T00:13:10.186Z,0.93
2022-12-03T00:18:13.208Z,0.70
2022-12-03T00:23:16.254Z,3.25
2022-12-03T00:28:19.308Z,5.67
2022-12-03T00:33:23.174Z,5.96
2022-12-03T00:38:29.089Z,3.94
2022-12-03T00:43:33.183Z,2.65
2022-12-03T00:48:36.202Z,1.94
2022-12-03T00:53:39.203Z,1.40
2022-12-03T00:58:42.192Z,1.02
2022-12-03T01:03:45.213Z,0.69
2022-12-03T01:08:48.216Z,1.37
2022-12-03T01:13:51.211Z,4.54
2022-12-03T01:18:54.233Z,6.29
2022-12-03T01:23:57.987Z,4.86
2022-12-03T01:29:00.999Z,3.24
2022-12-03T01:34:04.337Z,2.32
2022-12-03T01:39:07.779Z,1.70
2022-12-03T01:44:23.416Z,1.39
2022-12-03T01:49:39.930Z,3.94
2022-12-03T01:54:48.380Z,6.23
2022-12-03T01:59:53.537Z,5.24
2022-12-03T02:04:57.058Z,3.48
2022-12-03T02:10:03.214Z,2.44
2022-12-03T02:15:08.200Z,1.72
2022-12-03T02:20:13.053Z,1.19
2022-12-03T02:25:29.437Z,1.88
2022-12-03T02:30:32.874Z,4.86
2022-12-03T02:35:38.653Z,6.38
2022-12-03T02:40:43.159Z,4.92
2022-12-03T02:45:54.046Z,3.28
2022-12-03T02:51:11.307Z,2.30
2022-12-03T02:56:21.249Z,1.63
2022-12-03T03:01:27.336Z,2.26
2022-12-03T03:06:31.008Z,5.18
2022-12-03T03:11:34.095Z,6.71
2022-12-03T03:16:37.846Z,5.16
2022-12-03T03:21:43.978Z,3.49
2022-12-03T03:26:47.871Z,2.53
2022-12-03T03:31:50.849Z,1.89
2022-12-03T03:36:54.286Z,1.38
2022-12-03T03:41:57.426Z,2.01
2022-12-03T03:47:01.250Z,5.17
2022-12-03T03:52:04.845Z,5.93
2022-12-03T03:57:07.966Z,3.90
2022-12-03T04:02:22.897Z,2.72
2022-12-03T04:07:26.033Z,1.98
2022-12-03T04:12:47.834Z,3.20
2022-12-03T04:18:11.254Z,6.03
2022-12-03T04:23:14.273Z,6.23
2022-12-03T04:28:36.178Z,4.27
2022-12-03T04:33:57.731Z,2.98
2022-12-03T04:39:01.061Z,2.12
2022-12-03T04:44:22.994Z,1.58
2022-12-03T04:49:26.618Z,2.35
2022-12-03T04:54:30.029Z,5.46
2022-12-03T04:59:34.057Z,7.05
2022-12-03T05:04:37.384Z,5.64
2022-12-03T05:09:40.495Z,3.84
2022-12-03T05:14:43.491Z,2.80
2022-12-03T05:20:05.358Z,2.07
2022-12-03T05:25:09.463Z,2.08
2022-12-03T05:30:12.972Z,4.97
2022-12-03T05:35:16.118Z,6.88
2022-12-03T05:40:20.111Z,5.88
2022-12-03T05:45:35.268Z,4.04
2022-12-03T05:50:43.942Z,3.05
2022-12-03T05:55:47.095Z,2.43
2022-12-03T06:00:50.144Z,1.95
2022-12-03T06:05:53.218Z,1.54
2022-12-03T06:10:56.244Z,2.12
2022-12-03T06:15:59.361Z,5.21
2022-12-03T06:21:03.435Z,7.03
2022-12-03T06:26:06.746Z,5.75
2022-12-03T06:31:09.767Z,4.04
2022-12-03T06:36:12.855Z,3.04
2022-12-03T06:41:15.863Z,2.38
2022-12-03T06:46:18.989Z,1.91
2022-12-03T06:51:22.103Z,2.43
2022-12-03T06:56:26.483Z,5.43
2022-12-03T07:01:31.522Z,7.24
2022-12-03T07:06:34.549Z,6.03
2022-12-03T07:11:40.631Z,4.30
2022-12-03T07:16:44.158Z,3.25
2022-12-03T07:21:47.205Z,3.87
2022-12-03T07:26:50.215Z,6.54
2022-12-03T07:31:53.380Z,6.78
2022-12-03T07:36:56.455Z,4.77
2022-12-03T07:42:00.047Z,3.53
2022-12-03T07:47:03.221Z,2.69
2022-12-03T07:52:07.433Z,2.94
2022-12-03T07:57:10.505Z,5.86
2022-12-03T08:02:18.206Z,7.58
2022-12-03T08:07:24.730Z,6.46
2022-12-03T08:12:42.867Z,4.73
2022-12-03T08:17:51.682Z,3.68
2022-12-03T08:22:56.364Z,2.96
2022-12-03T08:28:11.490Z,2.36
2022-12-03T08:33:36.927Z,3.09
2022-12-03T08:38:40.366Z,6.30
2022-12-03T08:43:44.028Z,7.75
2022-12-03T08:48:49.388Z,6.19
2022-12-03T08:54:02.157Z,4.58
2022-12-03T08:59:30.766Z,3.67
2022-12-03T09:04:46.878Z,3.03
2022-12-03T09:09:49.953Z,3.48
2022-12-03T09:14:53.191Z,6.44
2022-12-03T09:19:56.396Z,8.00
2022-12-03T09:24:59.575Z,6.39
2022-12-03T09:30:03.549Z,4.83
2022-12-03T09:35:07.443Z,3.94
2022-12-03T09:40:11.809Z,3.32
2022-12-03T09:45:16.085Z,3.69
2022-12-03T09:50:26.459Z,6.67
2022-12-03T09:55:30.129Z,8.41
2022-12-03T10:00:33.120Z,8.15
2022-12-03T10:05:36.253Z,6.05
2022-12-03T10:10:42.080Z,4.82
2022-12-03T10:15:45.183Z,4.00
2022-12-03T10:20:49.076Z,4.70
2022-12-03T10:26:04.220Z,7.56
2022-12-03T10:31:11.345Z,8.90
2022-12-03T10:36:20.749Z,7.32
2022-12-03T10:41:28.531Z,5.64
2022-12-03T10:46:31.567Z,4.67
2022-12-03T10:51:35.347Z,3.99
2022-12-03T10:56:38.464Z,3.49
2022-12-03T11:01:41.650Z,4.14
2022-12-03T11:06:48.338Z,7.11
2022-12-03T11:11:51.499Z,8.74
2022-12-03T11:17:07.577Z,8.68
2022-12-03T11:22:10.599Z,6.62
2022-12-03T11:27:20.873Z,5.37
2022-12-03T11:32:39.788Z,4.52
2022-12-03T11:37:42.867Z,5.02
2022-12-03T11:42:48.977Z,7.86
2022-12-03T11:47:58.192Z,8.47
2022-12-03T11:53:08.075Z,6.46
2022-12-03T11:58:32.181Z,5.21
2022-12-03T12:03:49.006Z,4.41
2022-12-03T12:08:52.068Z,3.85
2022-12-03T12:14:07.018Z,4.50
2022-12-03T12:19:43.664Z,7.61
2022-12-03T12:24:51.815Z,9.19
2022-12-03T12:30:01.534Z,7.63
2022-12-03T12:35:17.829Z,6.06
2022-12-03T12:40:26.925Z,5.09
2022-12-03T12:45:35.178Z,4.47
2022-12-03T12:50:39.510Z,4.01
2022-12-03T12:55:42.585Z,3.92
2022-12-03T13:00:57.237Z,6.61
2022-12-03T13:06:02.756Z,8.93
2022-12-03T13:11:12.138Z,9.09
2022-12-03T13:16:34.014Z,7.13
2022-12-03T13:21:44.776Z,5.92
2022-12-03T13:26:47.834Z,5.14
2022-12-03T13:32:10.092Z,4.51
2022-12-03T13:37:34.000Z,4.57
2022-12-03T13:42:42.280Z,7.51
2022-12-03T13:47:54.062Z,9.24
2022-12-03T13:52:57.462Z,8.07
2022-12-03T13:58:00.443Z,6.50
2022-12-03T14:03:03.607Z,5.58
2022-12-03T14:08:06.710Z,4.87
2022-12-03T14:13:09.748Z,4.28
2022-12-03T14:18:12.718Z,3.89
2022-12-03T14:23:16.065Z,5.86
2022-12-03T14:28:19.043Z,8.42
2022-12-03T14:33:22.021Z,9.35
2022-12-03T14:38:25.089Z,7.48
2022-12-03T14:43:28.096Z,6.07
2022-12-03T14:48:31.083Z,5.20
2022-12-03T14:53:34.059Z,4.58
2022-12-03T14:58:37.045Z,4.10
2022-12-03T15:03:40.028Z,3.73
2022-12-03T15:08:43.052Z,4.51
2022-12-03T15:13:46.086Z,7.48
2022-12-03T15:18:49.211Z,9.18
2022-12-03T15:23:52.219Z,9.05
2022-12-03T15:28:55.285Z,7.00
2022-12-03T15:33:58.681Z,5.73
2022-12-03T15:39:01.731Z,5.02
2022-12-03T15:44:05.681Z,6.93
2022-12-03T15:49:08.528Z,9.05
2022-12-03T15:54:12.481Z,9.92
2022-12-03T15:59:15.316Z,8.22
2022-12-03T16:04:18.321Z,6.59
2022-12-03T16:09:26.943Z,5.64
2022-12-03T16:14:30.640Z,4.95
2022-12-03T16:19:33.653Z,4.43
2022-12-03T16:24:36.694Z,4.01
2022-12-03T16:29:39.706Z,4.65
2022-12-03T16:34:42.729Z,7.67
2022-12-03T16:39:45.830Z,9.37
2022-12-03T16:45:23.010Z,8.27
2022-12-03T16:50:29.872Z,6.41
2022-12-03T16:55:33.725Z,5.43
2022-12-03T17:00:37.190Z,4.72
2022-12-03T17:05:40.691Z,5.22
2022-12-03T17:10:44.883Z,8.09
2022-12-03T17:15:47.979Z,9.32
2022-12-03T17:20:50.977Z,7.56
2022-12-03T17:25:54.003Z,6.01
2022-12-03T17:30:57.056Z,5.10
2022-12-03T17:36:00.106Z,4.50
2022-12-03T17:41:03.129Z,4.96
2022-12-03T17:46:07.564Z,7.88
2022-12-03T17:51:10.600Z,9.50
2022-12-03T17:56:13.638Z,8.26
2022-12-03T18:01:16.745Z,6.63
2022-12-03T18:06:19.854Z,5.61
2022-12-03T18:11:23.596Z,4.98
2022-12-03T18:16:26.980Z,7.02
2022-12-03T18:21:30.029Z,9.15
2022-12-03T18:26:33.080Z,10.04
2022-12-03T18:31:36.123Z,9.71
2022-12-03T18:36:39.144Z,7.54
2022-12-03T18:41:42.185Z,6.16
2022-12-03T18:46:53.663Z,7.55
2022-12-03T18:51:59.620Z,9.24
2022-12-03T18:57:05.905Z,7.62
2022-12-03T19:02:38.637Z,5.95
2022-12-03T19:07:40.095Z,7.42
2022-12-03T19:12:43.266Z,9.19
2022-12-03T19:17:50.744Z,8.50
2022-12-03T19:22:53.775Z,6.50
2022-12-03T19:27:57.476Z,7.46
2022-12-03T19:33:00.506Z,9.30
2022-12-03T19:38:03.488Z,8.67
2022-12-03T19:43:06.490Z,6.58
2022-12-03T19:48:09.858Z,7.32
2022-12-03T19:53:12.811Z,8.84
2022-12-03T19:58:15.781Z,7.12
2022-12-03T20:03:18.777Z,6.76
2022-12-03T20:08:21.857Z,8.87
2022-12-03T20:13:25.007Z,8.41
2022-12-03T20:18:28.019Z,6.53
2022-12-03T20:23:30.998Z,8.03
2022-12-03T20:28:34.006Z,9.07
2022-12-03T20:33:38.279Z,7.05
2022-12-03T20:38:41.338Z,6.38
2022-12-03T20:43:45.809Z,8.45
2022-12-03T20:48:50.432Z,7.88
2022-12-03T20:53:54.065Z,6.62
2022-12-03T20:59:00.654Z,8.36
2022-12-03T21:04:05.213Z,7.37
2022-12-03T21:09:10.159Z,6.46
2022-12-03T21:14:13.164Z,8.55
2022-12-03T21:19:20.829Z,8.60
2022-12-03T21:24:23.983Z,6.49
2022-12-03T21:29:27.075Z,5.25
2022-12-03T21:34:36.111Z,5.94
2022-12-03T21:39:39.687Z,8.43
2022-12-03T21:44:42.695Z,9.61
2022-12-03T21:49:45.679Z,9.25
2022-12-03T21:54:51.823Z,7.12
2022-12-03T21:59:56.075Z,6.39
2022-12-03T22:04:59.233Z,8.44
2022-12-03T22:10:03.510Z,8.31
2022-12-03T22:15:07.474Z,6.45
2022-12-03T22:20:10.878Z,7.76
2022-12-03T22:25:13.888Z,8.13
2022-12-03T22:30:17.009Z,6.24
2022-12-03T22:35:21.444Z,6.91
2022-12-03T22:40:24.476Z,8.62
2022-12-03T22:45:27.495Z,7.20
2022-12-03T22:50:30.493Z,7.78
2022-12-03T22:55:33.475Z,9.15
2022-12-03T23:00:40.332Z,6.93
2022-12-03T23:05:43.482Z,8.44
2022-12-03T23:10:50.484Z,9.09
2022-12-03T23:15:53.556Z,6.75
2022-12-03T23:20:57.623Z,6.45
2022-12-03T23:26:09.933Z,9.27
2022-12-03T23:31:33.469Z,8.33
2022-12-03T23:36:36.739Z,6.31
2022-12-03T23:41:39.743Z,8.47
2022-12-03T23:46:42.855Z,10.08
2022-12-03T23:51:46.908Z,8.17
2022-12-03T23:56:49.856Z,6.26
